createdAt,value
2022-11-21T00:03:11.272Z,23.27
2022-11-21T00:08:14.318Z,28.30
2022-11-21T00:13:18.481Z,26.83
2022-11-21T00:18:20.323Z,24.87
2022-11-21T00:23:22.105Z,25.53
2022-11-21T00:28:25.311Z,22.80
2022-11-21T00:33:27.001Z,24.43
2022-11-21T00:38:28.740Z,25.63
2022-11-21T00:43:31.783Z,25.80
2022-11-21T00:48:33.540Z,27.50
2022-11-21T00:53:35.276Z,22.80
2022-11-21T00:58:38.391Z,25.73
2022-11-21T01:03:40.198Z,22.83
2022-11-21T01:08:43.304Z,24.70
2022-11-21T01:13:46.937Z,27.20
2022-11-21T01:18:49.029Z,21.90
2022-11-21T01:23:50.868Z,23.50
2022-11-21T01:28:53.983Z,25.20
2022-11-21T01:33:58.335Z,25.87
2022-11-21T01:39:01.156Z,23.50
2022-11-21T01:44:10.701Z,25.13
2022-11-21T01:49:13.768Z,22.40
2022-11-21T01:54:17.850Z,24.80
2022-11-21T01:59:22.692Z,24.13
2022-11-21T02:04:25.523Z,23.33
2022-11-21T02:09:27.604Z,28.50
2022-11-21T02:14:30.711Z,23.23
2022-11-21T02:19:35.406Z,24.20
2022-11-21T02:24:39.804Z,28.77
2022-11-21T02:29:42.959Z,27.57
2022-11-21T02:34:44.689Z,24.53
2022-11-21T02:39:46.425Z,33.73
2022-11-21T02:44:53.770Z,27.80
2022-11-21T02:49:58.098Z,32.40
2022-11-21T02:54:59.849Z,28.47
2022-11-21T03:00:03.575Z,26.87
2022-11-21T03:05:06.988Z,31.50
2022-11-21T03:10:09.347Z,28.73
2022-11-21T03:15:13.297Z,26.13
2022-11-21T03:20:15.486Z,29.50
2022-11-21T03:25:17.831Z,30.00
2022-11-21T03:30:21.232Z,28.80
2022-11-21T03:35:23.052Z,27.83
2022-11-21T03:40:24.869Z,30.73
2022-11-21T03:45:28.440Z,29.53
2022-11-21T03:50:30.297Z,30.00
2022-11-21T03:55:32.033Z,28.37
2022-11-21T04:00:35.134Z,30.70
2022-11-21T04:05:36.891Z,33.23
2022-11-21T04:10:38.731Z,32.07
2022-11-21T04:15:42.458Z,32.43
2022-11-21T04:20:44.367Z,30.07
2022-11-21T04:25:46.136Z,35.13
2022-11-21T04:30:49.285Z,29.13
2022-11-21T04:35:51.066Z,28.40
2022-11-21T04:40:52.836Z,34.20
2022-11-21T04:45:55.924Z,29.87
2022-11-21T04:50:57.987Z,28.43
2022-11-21T04:56:00.206Z,31.20
2022-11-21T05:01:07.819Z,30.33
2022-11-21T05:06:09.671Z,30.67
2022-11-21T05:11:30.303Z,32.10
2022-11-21T05:16:33.849Z,30.23
2022-11-21T05:21:35.677Z,33.97
2022-11-21T05:26:38.107Z,31.70
2022-11-21T05:31:41.366Z,33.30
2022-11-21T05:36:43.179Z,26.57
2022-11-21T05:41:44.925Z,35.27
2022-11-21T05:46:47.990Z,29.90
2022-11-21T05:51:49.748Z,27.57
2022-11-21T05:56:51.498Z,46.10
2022-11-21T06:02:13.461Z,44.73
2022-11-21T06:07:15.240Z,40.37
2022-11-21T06:12:20.272Z,50.80
2022-11-21T06:17:25.957Z,47.40
2022-11-21T06:22:27.678Z,38.90
2022-11-21T06:27:29.366Z,43.63
2022-11-21T06:32:36.064Z,50.30
2022-11-21T06:37:37.765Z,52.70
2022-11-21T06:42:39.487Z,48.53
2022-11-21T06:47:42.903Z,49.67
2022-11-21T06:52:44.641Z,41.10
2022-11-21T06:57:46.382Z,35.47
2022-11-21T07:02:49.507Z,53.43
2022-11-21T07:07:51.242Z,83.97
2022-11-21T07:13:12.754Z,51.57
2022-11-21T07:18:15.915Z,51.90
2022-11-21T07:23:17.657Z,45.10
2022-11-21T07:28:19.455Z,37.00
2022-11-21T07:33:22.609Z,60.73
2022-11-21T07:38:24.440Z,284.33
2022-11-21T07:43:26.199Z,34.80
2022-11-21T07:48:29.466Z,78.07
2022-11-21T07:53:32.287Z,44.90
2022-11-21T07:58:34.108Z,34.33
2022-11-21T08:03:37.270Z,101.03
2022-11-21T08:08:39.143Z,35.40
2022-11-21T08:13:40.871Z,27.17
2022-11-21T08:18:44.003Z,31.47
2022-11-21T08:23:45.743Z,33.50
2022-11-21T08:28:47.698Z,34.20
2022-11-21T08:33:50.836Z,33.13
2022-11-21T08:38:52.544Z,184.30
2022-11-21T08:43:54.282Z,37.10
2022-11-21T08:48:57.382Z,35.27
2022-11-21T08:53:59.550Z,37.33
2022-11-21T08:59:01.262Z,37.40
2022-11-21T09:04:04.592Z,32.50
2022-11-21T09:09:06.529Z,45.70
2022-11-21T09:14:27.245Z,28.50
2022-11-21T09:19:30.855Z,33.00
2022-11-21T09:24:32.860Z,47.03
2022-11-21T09:29:34.579Z,47.93
2022-11-21T09:34:37.758Z,35.37
2022-11-21T09:39:39.513Z,32.23
2022-11-21T09:45:03.983Z,29.47
2022-11-21T09:50:19.475Z,54.13
2022-11-21T09:55:24.287Z,27.77
2022-11-21T10:00:26.151Z,34.73
2022-11-21T10:05:35.266Z,27.87
2022-11-21T10:10:46.622Z,30.63
2022-11-21T10:15:54.665Z,30.47
2022-11-21T10:21:00.531Z,28.13
2022-11-21T10:26:09.845Z,31.60
2022-11-21T10:31:12.081Z,45.07
2022-11-21T10:36:20.918Z,32.10
2022-11-21T10:41:37.003Z,35.80
2022-11-21T10:46:38.759Z,40.50
2022-11-21T10:51:44.158Z,37.57
2022-11-21T10:56:45.871Z,37.10
2022-11-21T11:01:54.716Z,35.83
2022-11-21T11:06:59.937Z,42.60
2022-11-21T11:12:42.584Z,39.40
2022-11-21T11:17:44.349Z,38.00
2022-11-21T11:22:48.125Z,41.13
2022-11-21T11:27:49.981Z,46.83
2022-11-21T11:32:51.721Z,48.10
2022-11-21T11:37:59.532Z,52.10
2022-11-21T11:43:39.216Z,46.83
2022-11-21T11:49:03.740Z,46.00
2022-11-21T11:54:07.821Z,59.23
2022-11-21T11:59:13.288Z,49.73
2022-11-21T12:04:16.305Z,55.97
2022-11-21T12:09:23.293Z,50.37
2022-11-21T12:14:55.324Z,42.83
2022-11-21T12:19:57.063Z,43.80
2022-11-21T12:25:00.446Z,47.60
2022-11-21T12:30:32.584Z,41.50
2022-11-21T12:35:50.612Z,44.80
2022-11-21T12:40:59.099Z,39.13
2022-11-21T12:46:03.026Z,41.10
2022-11-21T12:51:52.213Z,39.93
2022-11-21T12:56:57.953Z,38.20
2022-11-21T13:02:03.092Z,41.83
2022-11-21T13:07:07.072Z,39.37
2022-11-21T13:12:13.379Z,42.13
2022-11-21T13:17:26.283Z,44.07
2022-11-21T13:22:56.714Z,47.90
2022-11-21T13:28:22.772Z,48.77
2022-11-21T13:33:52.786Z,53.90
2022-11-21T13:39:33.345Z,46.17
2022-11-21T13:44:40.605Z,46.07
2022-11-21T13:49:46.985Z,48.70
2022-11-21T13:55:18.430Z,42.97
2022-11-21T14:00:32.762Z,47.27
2022-11-21T14:05:47.906Z,32.80
2022-11-21T14:10:50.618Z,20.70
2022-11-21T14:16:05.487Z,12.47
2022-11-21T14:21:09.084Z,14.50
2022-11-21T14:26:12.111Z,17.60
2022-11-21T14:31:15.315Z,38.43
2022-11-21T14:36:18.548Z,40.10
2022-11-21T14:41:25.829Z,47.23
2022-11-21T14:46:29.661Z,38.13
2022-11-21T14:51:31.401Z,40.73
2022-11-21T14:56:33.332Z,45.37
2022-11-21T15:01:36.749Z,42.67
2022-11-21T15:06:40.767Z,35.80
2022-11-21T15:11:43.986Z,32.07
2022-11-21T15:16:47.893Z,38.77
2022-11-21T15:21:50.239Z,41.77
2022-11-21T15:26:51.997Z,38.40
2022-11-21T15:32:08.051Z,36.70
2022-11-21T15:37:13.060Z,47.70
2022-11-21T15:42:27.994Z,52.93
2022-11-21T15:47:31.150Z,43.83
2022-11-21T15:52:36.877Z,62.53
2022-11-21T15:57:38.628Z,40.10
2022-11-21T16:02:41.776Z,33.83
2022-11-21T16:07:43.634Z,29.67
2022-11-21T16:12:45.457Z,33.33
2022-11-21T16:17:48.558Z,28.07
2022-11-21T16:22:50.360Z,24.87
2022-11-21T16:27:52.123Z,27.47
2022-11-21T16:32:56.231Z,26.13
2022-11-21T16:37:58.062Z,27.53
2022-11-21T16:43:07.643Z,24.17
2022-11-21T16:48:10.812Z,23.23
2022-11-21T16:53:12.974Z,31.43
2022-11-21T16:58:14.864Z,32.43
2022-11-21T17:03:18.034Z,27.37
2022-11-21T17:08:19.871Z,28.07
2022-11-21T17:13:21.649Z,34.70
2022-11-21T17:18:24.831Z,28.53
2022-11-21T17:23:26.684Z,29.97
2022-11-21T17:28:28.488Z,33.70
2022-11-21T17:33:31.703Z,24.10
2022-11-21T17:38:33.500Z,25.47
2022-11-21T17:43:35.299Z,24.23
2022-11-21T17:48:38.578Z,26.60
2022-11-21T17:53:41.818Z,28.57
2022-11-21T17:58:43.550Z,24.90
2022-11-21T18:03:47.107Z,25.90
2022-11-21T18:08:49.063Z,32.47
2022-11-21T18:13:50.824Z,24.37
2022-11-21T18:18:54.052Z,23.30
2022-11-21T18:23:57.323Z,21.23
2022-11-21T18:29:34.641Z,25.77
2022-11-21T18:34:23.206Z,24.83
2022-11-21T18:39:26.759Z,23.33
2022-11-21T18:47:20.514Z,20.63
2022-11-21T18:52:22.833Z,19.37
2022-11-21T18:57:24.750Z,23.00
2022-11-21T19:02:28.119Z,23.17
2022-11-21T19:07:29.973Z,21.87
2022-11-21T19:12:36.257Z,25.57
2022-11-21T19:17:42.394Z,20.83
2022-11-21T19:22:44.180Z,21.80
2022-11-21T19:27:45.954Z,25.13
2022-11-21T19:32:49.055Z,24.73
2022-11-21T19:37:50.891Z,32.03
2022-11-21T19:42:52.747Z,25.77
2022-11-21T19:47:58.281Z,32.63
2022-11-21T19:53:00.159Z,32.87
2022-11-21T19:58:01.941Z,29.43
2022-11-21T20:03:05.161Z,33.80
2022-11-21T20:08:16.398Z,33.07
2022-11-21T20:13:19.353Z,35.17
2022-11-21T20:18:22.772Z,34.30
2022-11-21T20:23:24.596Z,36.07
2022-11-21T20:28:26.623Z,40.73
2022-11-21T20:33:29.781Z,44.40
2022-11-21T20:38:31.983Z,43.97
2022-11-21T20:44:10.558Z,39.57
2022-11-21T20:48:57.909Z,45.60
2022-11-21T20:54:03.358Z,44.00
2022-11-21T20:59:05.818Z,53.17
2022-11-21T21:04:12.095Z,47.30
2022-11-21T21:09:14.200Z,45.67
2022-11-21T21:14:15.956Z,51.20
2022-11-21T21:19:19.236Z,51.57
2022-11-21T21:24:21.116Z,59.47
2022-11-21T21:29:23.169Z,56.60
2022-11-21T21:34:26.302Z,64.73
2022-11-21T21:39:28.199Z,78.53
2022-11-21T21:44:33.399Z,77.30
2022-11-21T21:49:37.124Z,91.63
2022-11-21T21:54:38.877Z,94.00
2022-11-21T21:59:40.835Z,97.37
2022-11-21T22:04:46.973Z,110.67
2022-11-21T22:09:52.391Z,111.83
2022-11-21T22:14:54.141Z,125.80
2022-11-21T22:19:57.275Z,136.67
2022-11-21T22:24:59.085Z,125.67
2022-11-21T22:30:00.870Z,141.83
2022-11-21T22:35:04.427Z,135.67
2022-11-21T22:40:07.020Z,124.03
2022-11-21T22:45:09.907Z,137.63
2022-11-21T22:50:13.377Z,138.40
2022-11-21T22:55:15.263Z,129.43
2022-11-21T23:00:18.148Z,116.43
2022-11-21T23:05:21.301Z,134.10
2022-11-21T23:10:23.085Z,131.87
2022-11-21T23:15:24.982Z,105.27
2022-11-21T23:20:28.154Z,108.63
2022-11-21T23:25:30.219Z,89.60
2022-11-21T23:30:32.053Z,89.17
2022-11-21T23:35:35.129Z,78.50
2022-11-21T23:40:36.978Z,87.10
2022-11-21T23:45:38.790Z,80.10
2022-11-21T23:50:41.935Z,79.30
2022-11-21T23:55:43.913Z,76.67
